sensor_id;sensor_type;location;lat;lon;timestamp;temperature;humidity
59282;DHT22;45054;52.062;10.010;2023-02-28T00:00:34;0.50;99.90
59282;DHT22;45054;52.062;10.010;2023-02-28T00:03:00;0.40;99.90
59282;DHT22;45054;52.062;10.010;2023-02-28T00:05:26;0.30;99.90
59282;DHT22;45054;52.062;10.010;2023-02-28T00:07:53;0.30;99.90
59282;DHT22;45054;52.062;10.010;2023-02-28T00:10:19;0.20;99.90
59282;DHT22;45054;52.062;10.010;2023-02-28T00:12:45;0.20;99.90
59282;DHT22;45054;52.062;10.010;2023-02-28T00:15:10;0.10;99.90
59282;DHT22;45054;52.062;10.010;2023-02-28T00:17:36;0.00;99.90
59282;DHT22;45054;52.062;10.010;2023-02-28T00:20:02;-0.10;99.90
59282;DHT22;45054;52.062;10.010;2023-02-28T00:22:28;-0.10;99.90
59282;DHT22;45054;52.062;10.010;2023-02-28T00:24:54;-0.10;99.90
59282;DHT22;45054;52.062;10.010;2023-02-28T00:27:20;-0.10;99.90
59282;DHT22;45054;52.062;10.010;2023-02-28T00:29:46;0.00;99.90
59282;DHT22;45054;52.062;10.010;2023-02-28T00:32:11;0.10;99.90
59282;DHT22;45054;52.062;10.010;2023-02-28T00:34:37;0.00;99.90
59282;DHT22;45054;52.062;10.010;2023-02-28T00:37:02;0.00;99.90
59282;DHT22;45054;52.062;10.010;2023-02-28T00:39:27;0.00;99.90
59282;DHT22;45054;52.062;10.010;2023-02-28T00:41:54;-0.10;99.90
59282;DHT22;45054;52.062;10.010;2023-02-28T00:44:20;-0.10;99.90
59282;DHT22;45054;52.062;10.010;2023-02-28T00:46:45;-0.10;99.90
59282;DHT22;45054;52.062;10.010;2023-02-28T00:49:10;-0.20;99.90
59282;DHT22;45054;52.062;10.010;2023-02-28T00:51:36;-0.20;99.90
59282;DHT22;45054;52.062;10.010;2023-02-28T00:54:01;-0.30;99.90
59282;DHT22;45054;52.062;10.010;2023-02-28T00:56:27;-0.30;99.90
59282;DHT22;45054;52.062;10.010;2023-02-28T00:58:53;-0.40;99.90
59282;DHT22;45054;52.062;10.010;2023-02-28T01:01:19;-0.50;99.90
59282;DHT22;45054;52.062;10.010;2023-02-28T01:03:44;-0.50;99.90
59282;DHT22;45054;52.062;10.010;2023-02-28T01:06:10;-0.60;99.90
59282;DHT22;45054;52.062;10.010;2023-02-28T01:08:35;-0.50;99.90
59282;DHT22;45054;52.062;10.010;2023-02-28T01:11:06;-0.60;99.90
59282;DHT22;45054;52.062;10.010;2023-02-28T01:13:32;-0.60;99.90
59282;DHT22;45054;52.062;10.010;2023-02-28T01:15:59;-0.70;99.90
59282;DHT22;45054;52.062;10.010;2023-02-28T01:18:24;-0.70;99.90
59282;DHT22;45054;52.062;10.010;2023-02-28T01:20:50;-0.70;99.90
59282;DHT22;45054;52.062;10.010;2023-02-28T01:23:15;-0.70;99.90
59282;DHT22;45054;52.062;10.010;2023-02-28T01:25:40;-0.80;99.90
59282;DHT22;45054;52.062;10.010;2023-02-28T01:28:06;-0.70;99.90
59282;DHT22;45054;52.062;10.010;2023-02-28T01:30:31;-0.70;99.90
59282;DHT22;45054;52.062;10.010;2023-02-28T01:32:59;-0.70;99.90
59282;DHT22;45054;52.062;10.010;2023-02-28T01:35:24;-0.60;99.90
59282;DHT22;45054;52.062;10.010;2023-02-28T01:37:50;-0.70;99.90
59282;DHT22;45054;52.062;10.010;2023-02-28T01:40:15;-0.70;99.90
59282;DHT22;45054;52.062;10.010;2023-02-28T01:42:40;-0.70;99.90
59282;DHT22;45054;52.062;10.010;2023-02-28T01:45:14;-0.70;99.90
59282;DHT22;45054;52.062;10.010;2023-02-28T01:47:42;-0.70;99.90
59282;DHT22;45054;52.062;10.010;2023-02-28T01:50:11;-0.80;99.90
59282;DHT22;45054;52.062;10.010;2023-02-28T01:52:37;-0.80;99.90
59282;DHT22;45054;52.062;10.010;2023-02-28T01:55:04;-0.90;99.90
59282;DHT22;45054;52.062;10.010;2023-02-28T01:57:32;-0.90;99.90
59282;DHT22;45054;52.062;10.010;2023-02-28T01:59:58;-0.90;99.90
59282;DHT22;45054;52.062;10.010;2023-02-28T02:02:26;-1.00;99.90
59282;DHT22;45054;52.062;10.010;2023-02-28T02:04:53;-1.00;99.90
59282;DHT22;45054;52.062;10.010;2023-02-28T02:07:21;-1.00;99.90
59282;DHT22;45054;52.062;10.010;2023-02-28T02:09:47;-1.00;99.90
59282;DHT22;45054;52.062;10.010;2023-02-28T02:12:15;-0.90;99.90
59282;DHT22;45054;52.062;10.010;2023-02-28T02:14:48;-1.00;99.90
59282;DHT22;45054;52.062;10.010;2023-02-28T02:17:18;-0.90;99.90
59282;DHT22;45054;52.062;10.010;2023-02-28T02:19:52;-1.00;99.90
59282;DHT22;45054;52.062;10.010;2023-02-28T02:22:37;-0.90;99.90
59282;DHT22;45054;52.062;10.010;2023-02-28T02:25:19;-1.00;99.90
59282;DHT22;45054;52.062;10.010;2023-02-28T02:30:41;-1.00;99.90
59282;DHT22;45054;52.062;10.010;2023-02-28T02:35:56;-0.90;99.90
59282;DHT22;45054;52.062;10.010;2023-02-28T02:38:26;-0.90;99.90
59282;DHT22;45054;52.062;10.010;2023-02-28T02:40:57;-1.00;99.90
59282;DHT22;45054;52.062;10.010;2023-02-28T02:43:25;-1.00;99.90
59282;DHT22;45054;52.062;10.010;2023-02-28T02:45:54;-0.90;99.90
59282;DHT22;45054;52.062;10.010;2023-02-28T02:48:21;-0.90;99.90
59282;DHT22;45054;52.062;10.010;2023-02-28T02:50:51;-0.90;99.90
59282;DHT22;45054;52.062;10.010;2023-02-28T02:53:21;-0.90;99.90
59282;DHT22;45054;52.062;10.010;2023-02-28T02:55:48;-0.90;99.90
59282;DHT22;45054;52.062;10.010;2023-02-28T02:58:14;-0.90;99.90
59282;DHT22;45054;52.062;10.010;2023-02-28T03:00:42;-0.80;99.90
59282;DHT22;45054;52.062;10.010;2023-02-28T03:03:10;-0.80;99.90
59282;DHT22;45054;52.062;10.010;2023-02-28T03:05:39;-0.80;99.90
59282;DHT22;45054;52.062;10.010;2023-02-28T03:08:06;-0.80;99.90
59282;DHT22;45054;52.062;10.010;2023-02-28T03:10:35;-0.80;99.90
59282;DHT22;45054;52.062;10.010;2023-02-28T03:13:13;-0.70;99.90
59282;DHT22;45054;52.062;10.010;2023-02-28T03:15:45;-0.80;99.90
59282;DHT22;45054;52.062;10.010;2023-02-28T03:18:17;-0.80;99.90
59282;DHT22;45054;52.062;10.010;2023-02-28T03:20:45;-0.80;99.90
59282;DHT22;45054;52.062;10.010;2023-02-28T03:23:14;-0.90;99.90
59282;DHT22;45054;52.062;10.010;2023-02-28T03:25:45;-0.90;99.90
59282;DHT22;45054;52.062;10.010;2023-02-28T03:28:14;-0.80;99.90
59282;DHT22;45054;52.062;10.010;2023-02-28T03:30:42;-0.80;99.90
59282;DHT22;45054;52.062;10.010;2023-02-28T03:33:11;-0.80;99.90
59282;DHT22;45054;52.062;10.010;2023-02-28T03:35:38;-0.80;99.90
59282;DHT22;45054;52.062;10.010;2023-02-28T03:38:05;-0.80;99.90
59282;DHT22;45054;52.062;10.010;2023-02-28T03:40:32;-0.80;99.90
59282;DHT22;45054;52.062;10.010;2023-02-28T03:43:01;-0.90;99.90
59282;DHT22;45054;52.062;10.010;2023-02-28T03:45:28;-0.90;99.90
59282;DHT22;45054;52.062;10.010;2023-02-28T03:47:55;-1.00;99.90
59282;DHT22;45054;52.062;10.010;2023-02-28T03:50:22;-1.10;99.90
59282;DHT22;45054;52.062;10.010;2023-02-28T03:52:50;-1.10;99.90
59282;DHT22;45054;52.062;10.010;2023-02-28T03:55:16;-1.20;99.90
59282;DHT22;45054;52.062;10.010;2023-02-28T03:57:44;-1.30;99.90
59282;DHT22;45054;52.062;10.010;2023-02-28T04:00:16;-1.30;99.90
59282;DHT22;45054;52.062;10.010;2023-02-28T04:02:43;-1.40;99.90
59282;DHT22;45054;52.062;10.010;2023-02-28T04:05:09;-1.40;99.90
59282;DHT22;45054;52.062;10.010;2023-02-28T04:07:34;-1.40;99.90
59282;DHT22;45054;52.062;10.010;2023-02-28T04:10:00;-1.30;99.90
59282;DHT22;45054;52.062;10.010;2023-02-28T04:12:25;-1.40;99.90
59282;DHT22;45054;52.062;10.010;2023-02-28T04:14:51;-1.40;99.90
59282;DHT22;45054;52.062;10.010;2023-02-28T04:17:18;-1.40;99.90
59282;DHT22;45054;52.062;10.010;2023-02-28T04:19:43;-1.40;99.90
59282;DHT22;45054;52.062;10.010;2023-02-28T04:22:09;-1.40;99.90
59282;DHT22;45054;52.062;10.010;2023-02-28T04:24:34;-1.40;99.90
59282;DHT22;45054;52.062;10.010;2023-02-28T04:27:00;-1.40;99.90
59282;DHT22;45054;52.062;10.010;2023-02-28T04:29:26;-1.40;99.90
59282;DHT22;45054;52.062;10.010;2023-02-28T04:31:52;-1.30;99.90
59282;DHT22;45054;52.062;10.010;2023-02-28T04:34:19;-1.30;99.90
59282;DHT22;45054;52.062;10.010;2023-02-28T04:36:45;-1.30;99.90
59282;DHT22;45054;52.062;10.010;2023-02-28T04:39:10;-1.20;99.90
59282;DHT22;45054;52.062;10.010;2023-02-28T04:41:35;-1.10;99.90
59282;DHT22;45054;52.062;10.010;2023-02-28T04:44:01;-1.10;99.90
59282;DHT22;45054;52.062;10.010;2023-02-28T04:46:26;-1.10;99.90
59282;DHT22;45054;52.062;10.010;2023-02-28T04:48:52;-1.10;99.90
59282;DHT22;45054;52.062;10.010;2023-02-28T04:51:19;-1.10;99.90
59282;DHT22;45054;52.062;10.010;2023-02-28T04:53:44;-0.90;99.90
59282;DHT22;45054;52.062;10.010;2023-02-28T04:56:10;-0.80;99.90
59282;DHT22;45054;52.062;10.010;2023-02-28T04:58:37;-0.80;99.90
59282;DHT22;45054;52.062;10.010;2023-02-28T05:01:03;-0.70;99.90
59282;DHT22;45054;52.062;10.010;2023-02-28T05:03:29;-0.70;99.90
59282;DHT22;45054;52.062;10.010;2023-02-28T05:05:54;-0.80;99.90
59282;DHT22;45054;52.062;10.010;2023-02-28T05:08:21;-0.80;99.90
59282;DHT22;45054;52.062;10.010;2023-02-28T05:10:47;-0.80;99.90
59282;DHT22;45054;52.062;10.010;2023-02-28T05:13:12;-0.90;99.90
59282;DHT22;45054;52.062;10.010;2023-02-28T05:15:38;-1.00;99.90
59282;DHT22;45054;52.062;10.010;2023-02-28T05:18:05;-1.00;99.90
59282;DHT22;45054;52.062;10.010;2023-02-28T05:20:31;-1.10;99.90
59282;DHT22;45054;52.062;10.010;2023-02-28T05:23:01;-1.20;99.90
59282;DHT22;45054;52.062;10.010;2023-02-28T05:25:28;-1.20;99.90
59282;DHT22;45054;52.062;10.010;2023-02-28T05:27:54;-1.20;99.90
59282;DHT22;45054;52.062;10.010;2023-02-28T05:30:19;-1.30;99.90
59282;DHT22;45054;52.062;10.010;2023-02-28T05:32:49;-1.30;99.90
59282;DHT22;45054;52.062;10.010;2023-02-28T05:35:14;-1.30;99.90
59282;DHT22;45054;52.062;10.010;2023-02-28T05:37:40;-1.20;99.90
59282;DHT22;45054;52.062;10.010;2023-02-28T05:40:06;-1.20;99.90
59282;DHT22;45054;52.062;10.010;2023-02-28T05:42:33;-1.20;99.90
59282;DHT22;45054;52.062;10.010;2023-02-28T05:44:58;-1.30;99.90
59282;DHT22;45054;52.062;10.010;2023-02-28T05:47:24;-1.30;99.90
59282;DHT22;45054;52.062;10.010;2023-02-28T05:49:49;-1.40;99.90
59282;DHT22;45054;52.062;10.010;2023-02-28T05:52:14;-1.40;99.90
59282;DHT22;45054;52.062;10.010;2023-02-28T05:54:40;-1.40;99.90
59282;DHT22;45054;52.062;10.010;2023-02-28T05:57:05;-1.40;99.90
59282;DHT22;45054;52.062;10.010;2023-02-28T05:59:32;-1.40;99.90
59282;DHT22;45054;52.062;10.010;2023-02-28T06:01:58;-1.40;99.90
59282;DHT22;45054;52.062;10.010;2023-02-28T06:04:23;-1.50;99.90
59282;DHT22;45054;52.062;10.010;2023-02-28T06:06:49;-1.60;99.90
59282;DHT22;45054;52.062;10.010;2023-02-28T06:09:14;-1.70;99.90
59282;DHT22;45054;52.062;10.010;2023-02-28T06:11:40;-1.70;99.90
59282;DHT22;45054;52.062;10.010;2023-02-28T06:14:06;-1.80;99.90
59282;DHT22;45054;52.062;10.010;2023-02-28T06:16:33;-1.80;99.90
59282;DHT22;45054;52.062;10.010;2023-02-28T06:19:00;-1.80;99.90
59282;DHT22;45054;52.062;10.010;2023-02-28T06:21:25;-1.80;99.90
59282;DHT22;45054;52.062;10.010;2023-02-28T06:23:51;-1.80;99.90
59282;DHT22;45054;52.062;10.010;2023-02-28T06:26:16;-1.80;99.90
59282;DHT22;45054;52.062;10.010;2023-02-28T06:28:42;-1.80;99.90
59282;DHT22;45054;52.062;10.010;2023-02-28T06:31:07;-1.80;99.90
59282;DHT22;45054;52.062;10.010;2023-02-28T06:33:35;-1.70;99.90
59282;DHT22;45054;52.062;10.010;2023-02-28T06:36:00;-1.70;99.90
59282;DHT22;45054;52.062;10.010;2023-02-28T06:38:26;-1.70;99.90
59282;DHT22;45054;52.062;10.010;2023-02-28T06:40:53;-1.70;99.90
59282;DHT22;45054;52.062;10.010;2023-02-28T06:43:18;-1.60;99.90
59282;DHT22;45054;52.062;10.010;2023-02-28T06:45:43;-1.50;99.90
59282;DHT22;45054;52.062;10.010;2023-02-28T06:48:09;-1.50;99.90
59282;DHT22;45054;52.062;10.010;2023-02-28T06:50:36;-1.40;99.90
59282;DHT22;45054;52.062;10.010;2023-02-28T06:53:01;-1.30;99.90
59282;DHT22;45054;52.062;10.010;2023-02-28T06:55:26;-1.20;99.90
59282;DHT22;45054;52.062;10.010;2023-02-28T06:57:52;-1.20;99.90
59282;DHT22;45054;52.062;10.010;2023-02-28T07:00:17;-1.10;99.90
59282;DHT22;45054;52.062;10.010;2023-02-28T07:02:43;-1.10;99.90
59282;DHT22;45054;52.062;10.010;2023-02-28T07:05:08;-1.00;99.90
59282;DHT22;45054;52.062;10.010;2023-02-28T07:07:35;-0.90;99.90
59282;DHT22;45054;52.062;10.010;2023-02-28T07:10:01;-0.80;99.90
59282;DHT22;45054;52.062;10.010;2023-02-28T07:12:26;-0.80;99.90
59282;DHT22;45054;52.062;10.010;2023-02-28T07:14:51;-0.70;99.90
59282;DHT22;45054;52.062;10.010;2023-02-28T07:17:17;-0.60;99.90
59282;DHT22;45054;52.062;10.010;2023-02-28T07:19:42;-0.60;99.90
59282;DHT22;45054;52.062;10.010;2023-02-28T07:22:08;-0.50;99.90
59282;DHT22;45054;52.062;10.010;2023-02-28T07:24:34;-0.40;99.90
59282;DHT22;45054;52.062;10.010;2023-02-28T07:27:00;-0.40;99.90
59282;DHT22;45054;52.062;10.010;2023-02-28T07:29:25;-0.30;99.90
59282;DHT22;45054;52.062;10.010;2023-02-28T07:31:51;-0.30;99.90
59282;DHT22;45054;52.062;10.010;2023-02-28T07:34:16;-0.30;99.90
59282;DHT22;45054;52.062;10.010;2023-02-28T07:36:42;-0.30;99.90
59282;DHT22;45054;52.062;10.010;2023-02-28T07:39:07;-0.30;99.90
59282;DHT22;45054;52.062;10.010;2023-02-28T07:41:34;-0.30;99.90
59282;DHT22;45054;52.062;10.010;2023-02-28T07:44:00;-0.30;99.90
59282;DHT22;45054;52.062;10.010;2023-02-28T07:46:25;-0.30;99.90
59282;DHT22;45054;52.062;10.010;2023-02-28T07:48:51;-0.20;99.90
59282;DHT22;45054;52.062;10.010;2023-02-28T07:51:16;-0.20;99.90
59282;DHT22;45054;52.062;10.010;2023-02-28T07:53:41;-0.10;99.90
59282;DHT22;45054;52.062;10.010;2023-02-28T07:56:07;0.00;99.90
59282;DHT22;45054;52.062;10.010;2023-02-28T07:58:34;0.10;99.90
59282;DHT22;45054;52.062;10.010;2023-02-28T08:01:04;0.30;99.90
59282;DHT22;45054;52.062;10.010;2023-02-28T08:03:30;0.40;99.90
59282;DHT22;45054;52.062;10.010;2023-02-28T08:05:55;0.40;99.90
59282;DHT22;45054;52.062;10.010;2023-02-28T08:08:21;0.50;99.90
59282;DHT22;45054;52.062;10.010;2023-02-28T08:10:46;0.50;99.90
59282;DHT22;45054;52.062;10.010;2023-02-28T08:13:12;0.60;99.90
59282;DHT22;45054;52.062;10.010;2023-02-28T08:15:39;0.60;99.90
59282;DHT22;45054;52.062;10.010;2023-02-28T08:18:05;0.70;99.90
59282;DHT22;45054;52.062;10.010;2023-02-28T08:20:30;0.70;99.90
59282;DHT22;45054;52.062;10.010;2023-02-28T08:22:56;0.80;99.90
59282;DHT22;45054;52.062;10.010;2023-02-28T08:25:21;0.80;99.90
59282;DHT22;45054;52.062;10.010;2023-02-28T08:27:47;0.70;99.90
59282;DHT22;45054;52.062;10.010;2023-02-28T08:30:12;0.70;99.90
59282;DHT22;45054;52.062;10.010;2023-02-28T08:32:40;0.70;99.90
59282;DHT22;45054;52.062;10.010;2023-02-28T08:35:06;0.70;99.90
59282;DHT22;45054;52.062;10.010;2023-02-28T08:37:31;0.70;99.90
59282;DHT22;45054;52.062;10.010;2023-02-28T08:39:57;0.70;99.90
59282;DHT22;45054;52.062;10.010;2023-02-28T08:42:22;0.80;99.90
59282;DHT22;45054;52.062;10.010;2023-02-28T08:44:48;0.80;99.90
59282;DHT22;45054;52.062;10.010;2023-02-28T08:47:13;0.80;99.90
59282;DHT22;45054;52.062;10.010;2023-02-28T08:49:40;0.80;99.90
59282;DHT22;45054;52.062;10.010;2023-02-28T08:52:05;0.90;99.90
59282;DHT22;45054;52.062;10.010;2023-02-28T08:54:31;0.90;99.90
59282;DHT22;45054;52.062;10.010;2023-02-28T08:56:57;0.80;99.90
59282;DHT22;45054;52.062;10.010;2023-02-28T08:59:22;0.80;99.90
59282;DHT22;45054;52.062;10.010;2023-02-28T09:01:47;0.90;99.90
59282;DHT22;45054;52.062;10.010;2023-02-28T09:04:13;1.00;99.90
59282;DHT22;45054;52.062;10.010;2023-02-28T09:06:40;1.00;99.90
59282;DHT22;45054;52.062;10.010;2023-02-28T09:09:05;1.10;99.90
59282;DHT22;45054;52.062;10.010;2023-02-28T09:11:31;1.10;99.90
59282;DHT22;45054;52.062;10.010;2023-02-28T09:13:57;1.20;99.90
59282;DHT22;45054;52.062;10.010;2023-02-28T09:16:22;1.30;99.90
59282;DHT22;45054;52.062;10.010;2023-02-28T09:18:48;1.30;99.90
59282;DHT22;45054;52.062;10.010;2023-02-28T09:21:14;1.40;99.90
59282;DHT22;45054;52.062;10.010;2023-02-28T09:23:41;1.50;99.90
59282;DHT22;45054;52.062;10.010;2023-02-28T09:26:06;1.50;99.90
59282;DHT22;45054;52.062;10.010;2023-02-28T09:28:32;1.50;99.90
59282;DHT22;45054;52.062;10.010;2023-02-28T09:30:57;1.60;99.90
59282;DHT22;45054;52.062;10.010;2023-02-28T09:33:23;1.70;99.90
59282;DHT22;45054;52.062;10.010;2023-02-28T09:35:49;1.70;99.90
59282;DHT22;45054;52.062;10.010;2023-02-28T09:38:14;1.70;99.90
59282;DHT22;45054;52.062;10.010;2023-02-28T09:40:45;1.70;99.90
59282;DHT22;45054;52.062;10.010;2023-02-28T09:43:12;1.70;99.90
59282;DHT22;45054;52.062;10.010;2023-02-28T09:45:39;1.80;99.90
59282;DHT22;45054;52.062;10.010;2023-02-28T09:48:06;1.90;99.90
59282;DHT22;45054;52.062;10.010;2023-02-28T09:50:36;1.90;99.90
59282;DHT22;45054;52.062;10.010;2023-02-28T09:53:05;1.90;99.90
59282;DHT22;45054;52.062;10.010;2023-02-28T09:55:32;2.00;99.90
59282;DHT22;45054;52.062;10.010;2023-02-28T09:58:00;2.00;99.90
59282;DHT22;45054;52.062;10.010;2023-02-28T10:00:28;2.10;99.90
59282;DHT22;45054;52.062;10.010;2023-02-28T10:03:00;2.20;99.90
59282;DHT22;45054;52.062;10.010;2023-02-28T10:05:30;2.20;99.90
59282;DHT22;45054;52.062;10.010;2023-02-28T10:08:00;2.20;99.90
59282;DHT22;45054;52.062;10.010;2023-02-28T10:10:28;2.30;99.90
59282;DHT22;45054;52.062;10.010;2023-02-28T10:12:55;2.30;99.90
59282;DHT22;45054;52.062;10.010;2023-02-28T10:15:23;2.40;99.90
59282;DHT22;45054;52.062;10.010;2023-02-28T10:17:49;2.50;99.90
59282;DHT22;45054;52.062;10.010;2023-02-28T10:20:17;2.60;99.90
59282;DHT22;45054;52.062;10.010;2023-02-28T10:22:48;2.60;99.90
59282;DHT22;45054;52.062;10.010;2023-02-28T10:25:16;2.60;99.90
59282;DHT22;45054;52.062;10.010;2023-02-28T10:27:44;2.60;99.90
59282;DHT22;45054;52.062;10.010;2023-02-28T10:30:10;2.70;99.90
59282;DHT22;45054;52.062;10.010;2023-02-28T10:32:37;2.80;99.90
59282;DHT22;45054;52.062;10.010;2023-02-28T10:35:06;2.70;99.90
59282;DHT22;45054;52.062;10.010;2023-02-28T10:37:32;2.70;99.90
59282;DHT22;45054;52.062;10.010;2023-02-28T10:39:57;2.70;99.90
59282;DHT22;45054;52.062;10.010;2023-02-28T10:42:23;2.80;99.90
59282;DHT22;45054;52.062;10.010;2023-02-28T10:44:49;2.90;99.90
59282;DHT22;45054;52.062;10.010;2023-02-28T10:47:15;2.90;99.90
59282;DHT22;45054;52.062;10.010;2023-02-28T10:49:47;2.90;99.90
59282;DHT22;45054;52.062;10.010;2023-02-28T10:52:13;2.90;99.90
59282;DHT22;45054;52.062;10.010;2023-02-28T10:54:38;3.00;99.90
59282;DHT22;45054;52.062;10.010;2023-02-28T10:57:08;3.00;99.90
59282;DHT22;45054;52.062;10.010;2023-02-28T10:59:34;2.90;99.90
59282;DHT22;45054;52.062;10.010;2023-02-28T11:01:59;2.90;99.90
59282;DHT22;45054;52.062;10.010;2023-02-28T11:04:32;3.00;99.90
59282;DHT22;45054;52.062;10.010;2023-02-28T11:07:00;3.00;99.90
59282;DHT22;45054;52.062;10.010;2023-02-28T11:09:27;3.00;99.90
59282;DHT22;45054;52.062;10.010;2023-02-28T11:11:53;3.10;99.90
59282;DHT22;45054;52.062;10.010;2023-02-28T11:14:19;3.20;99.90
59282;DHT22;45054;52.062;10.010;2023-02-28T11:16:45;3.20;99.90
59282;DHT22;45054;52.062;10.010;2023-02-28T11:19:16;3.10;99.90
59282;DHT22;45054;52.062;10.010;2023-02-28T11:21:45;3.10;99.90
59282;DHT22;45054;52.062;10.010;2023-02-28T11:24:15;3.10;99.90
59282;DHT22;45054;52.062;10.010;2023-02-28T11:26:44;3.20;99.90
59282;DHT22;45054;52.062;10.010;2023-02-28T11:29:17;3.20;99.90
59282;DHT22;45054;52.062;10.010;2023-02-28T11:31:43;3.30;99.90
59282;DHT22;45054;52.062;10.010;2023-02-28T11:34:24;3.30;99.90
59282;DHT22;45054;52.062;10.010;2023-02-28T11:36:50;3.30;99.90
59282;DHT22;45054;52.062;10.010;2023-02-28T11:39:17;3.30;99.90
59282;DHT22;45054;52.062;10.010;2023-02-28T11:41:49;3.30;99.90
59282;DHT22;45054;52.062;10.010;2023-02-28T11:44:22;3.40;99.90
59282;DHT22;45054;52.062;10.010;2023-02-28T11:46:49;3.70;99.90
59282;DHT22;45054;52.062;10.010;2023-02-28T11:49:18;4.00;99.90
59282;DHT22;45054;52.062;10.010;2023-02-28T11:51:47;3.80;99.90
59282;DHT22;45054;52.062;10.010;2023-02-28T11:54:21;3.90;99.90
59282;DHT22;45054;52.062;10.010;2023-02-28T11:56:49;3.90;99.90
59282;DHT22;45054;52.062;10.010;2023-02-28T11:59:22;4.00;99.90
59282;DHT22;45054;52.062;10.010;2023-02-28T12:01:59;4.30;99.90
59282;DHT22;45054;52.062;10.010;2023-02-28T12:04:30;4.50;99.90
59282;DHT22;45054;52.062;10.010;2023-02-28T12:07:00;4.70;99.90
59282;DHT22;45054;52.062;10.010;2023-02-28T12:09:34;4.90;99.90
59282;DHT22;45054;52.062;10.010;2023-02-28T12:12:03;4.90;99.90
59282;DHT22;45054;52.062;10.010;2023-02-28T12:14:49;4.90;99.90
59282;DHT22;45054;52.062;10.010;2023-02-28T12:17:18;4.80;99.90
59282;DHT22;45054;52.062;10.010;2023-02-28T12:19:47;4.80;99.90
59282;DHT22;45054;52.062;10.010;2023-02-28T12:22:18;5.10;99.90
59282;DHT22;45054;52.062;10.010;2023-02-28T12:24:54;5.10;99.90
59282;DHT22;45054;52.062;10.010;2023-02-28T12:27:25;5.10;99.90
59282;DHT22;45054;52.062;10.010;2023-02-28T12:29:53;5.00;99.90
59282;DHT22;45054;52.062;10.010;2023-02-28T12:32:20;5.10;99.90
59282;DHT22;45054;52.062;10.010;2023-02-28T12:34:47;5.10;99.90
59282;DHT22;45054;52.062;10.010;2023-02-28T12:37:14;5.10;99.90
59282;DHT22;45054;52.062;10.010;2023-02-28T12:39:43;4.90;99.90
59282;DHT22;45054;52.062;10.010;2023-02-28T12:42:11;4.90;99.90
59282;DHT22;45054;52.062;10.010;2023-02-28T12:44:37;4.90;99.90
59282;DHT22;45054;52.062;10.010;2023-02-28T12:47:10;5.00;99.90
59282;DHT22;45054;52.062;10.010;2023-02-28T12:49:37;5.00;99.90
59282;DHT22;45054;52.062;10.010;2023-02-28T12:52:04;5.20;99.90
59282;DHT22;45054;52.062;10.010;2023-02-28T12:54:31;5.30;99.90
59282;DHT22;45054;52.062;10.010;2023-02-28T12:57:01;5.40;99.90
59282;DHT22;45054;52.062;10.010;2023-02-28T12:59:34;5.60;99.90
59282;DHT22;45054;52.062;10.010;2023-02-28T13:05:01;5.60;99.90
59282;DHT22;45054;52.062;10.010;2023-02-28T13:07:35;5.50;99.90
59282;DHT22;45054;52.062;10.010;2023-02-28T13:10:06;5.20;99.90
59282;DHT22;45054;52.062;10.010;2023-02-28T13:12:32;5.00;99.90
59282;DHT22;45054;52.062;10.010;2023-02-28T13:15:04;5.20;99.90
59282;DHT22;45054;52.062;10.010;2023-02-28T13:17:30;5.40;99.90
59282;DHT22;45054;52.062;10.010;2023-02-28T13:19:56;5.50;99.90
59282;DHT22;45054;52.062;10.010;2023-02-28T13:22:36;5.70;99.90
59282;DHT22;45054;52.062;10.010;2023-02-28T13:25:02;5.70;99.90
59282;DHT22;45054;52.062;10.010;2023-02-28T13:27:35;5.60;99.90
59282;DHT22;45054;52.062;10.010;2023-02-28T13:31:03;5.50;99.90
59282;DHT22;45054;52.062;10.010;2023-02-28T13:32:51;5.30;99.90
59282;DHT22;45054;52.062;10.010;2023-02-28T13:35:37;5.20;99.90
59282;DHT22;45054;52.062;10.010;2023-02-28T13:38:15;5.30;99.90
59282;DHT22;45054;52.062;10.010;2023-02-28T13:40:41;5.40;99.90
59282;DHT22;45054;52.062;10.010;2023-02-28T13:43:07;5.50;99.90
59282;DHT22;45054;52.062;10.010;2023-02-28T13:45:34;5.60;99.90
59282;DHT22;45054;52.062;10.010;2023-02-28T13:48:00;5.60;99.90
59282;DHT22;45054;52.062;10.010;2023-02-28T13:50:27;5.80;99.90
59282;DHT22;45054;52.062;10.010;2023-02-28T13:53:04;6.00;99.90
59282;DHT22;45054;52.062;10.010;2023-02-28T13:55:41;5.90;99.90
59282;DHT22;45054;52.062;10.010;2023-02-28T13:58:12;6.00;99.90
59282;DHT22;45054;52.062;10.010;2023-02-28T14:00:47;5.90;99.90
59282;DHT22;45054;52.062;10.010;2023-02-28T14:03:22;6.00;99.90
59282;DHT22;45054;52.062;10.010;2023-02-28T14:08:31;6.20;99.90
59282;DHT22;45054;52.062;10.010;2023-02-28T14:11:02;6.20;99.90
59282;DHT22;45054;52.062;10.010;2023-02-28T14:13:37;6.30;99.90
59282;DHT22;45054;52.062;10.010;2023-02-28T14:16:05;6.20;99.90
59282;DHT22;45054;52.062;10.010;2023-02-28T14:18:31;6.20;99.90
59282;DHT22;45054;52.062;10.010;2023-02-28T14:20:58;6.40;99.90
59282;DHT22;45054;52.062;10.010;2023-02-28T14:23:39;6.60;99.90
59282;DHT22;45054;52.062;10.010;2023-02-28T14:26:07;6.50;99.90
59282;DHT22;45054;52.062;10.010;2023-02-28T14:28:43;6.50;99.90
59282;DHT22;45054;52.062;10.010;2023-02-28T14:31:11;6.20;99.90
59282;DHT22;45054;52.062;10.010;2023-02-28T14:33:41;6.10;99.90
59282;DHT22;45054;52.062;10.010;2023-02-28T14:36:10;6.20;99.90
59282;DHT22;45054;52.062;10.010;2023-02-28T14:38:39;6.40;99.90
59282;DHT22;45054;52.062;10.010;2023-02-28T14:41:06;6.50;99.90
59282;DHT22;45054;52.062;10.010;2023-02-28T14:43:46;6.50;99.90
59282;DHT22;45054;52.062;10.010;2023-02-28T14:46:13;6.30;99.90
59282;DHT22;45054;52.062;10.010;2023-02-28T14:48:39;6.50;99.90
59282;DHT22;45054;52.062;10.010;2023-02-28T14:51:04;6.60;99.90
59282;DHT22;45054;52.062;10.010;2023-02-28T14:53:34;6.70;99.90
59282;DHT22;45054;52.062;10.010;2023-02-28T14:56:00;6.70;99.90
59282;DHT22;45054;52.062;10.010;2023-02-28T14:58:26;6.80;99.90
59282;DHT22;45054;52.062;10.010;2023-02-28T15:00:53;6.90;99.90
59282;DHT22;45054;52.062;10.010;2023-02-28T15:03:20;6.80;99.90
59282;DHT22;45054;52.062;10.010;2023-02-28T15:05:53;6.90;99.90
59282;DHT22;45054;52.062;10.010;2023-02-28T15:08:18;6.90;99.90
59282;DHT22;45054;52.062;10.010;2023-02-28T15:10:44;6.80;99.90
59282;DHT22;45054;52.062;10.010;2023-02-28T15:13:11;6.80;99.90
59282;DHT22;45054;52.062;10.010;2023-02-28T15:15:40;6.60;99.90
59282;DHT22;45054;52.062;10.010;2023-02-28T15:18:06;6.40;99.90
59282;DHT22;45054;52.062;10.010;2023-02-28T15:20:34;6.60;99.90
59282;DHT22;45054;52.062;10.010;2023-02-28T15:23:00;6.80;99.90
59282;DHT22;45054;52.062;10.010;2023-02-28T15:25:26;7.10;99.90
59282;DHT22;45054;52.062;10.010;2023-02-28T15:27:52;7.40;99.90
59282;DHT22;45054;52.062;10.010;2023-02-28T15:30:19;7.80;99.90
59282;DHT22;45054;52.062;10.010;2023-02-28T15:32:45;8.50;99.90
59282;DHT22;45054;52.062;10.010;2023-02-28T15:35:27;8.70;99.90
59282;DHT22;45054;52.062;10.010;2023-02-28T15:37:54;8.80;99.90